This is the latest recevied weather packets stored in our database for station/object KE1THD. If no packets are shown the sender has not sent any weather packets the latest 10 day(s).
| Time | Temp. | Humidity | Pressure | Rain* | Wind** | Luminosity | Snow |
|---|---|---|---|---|---|---|---|
| 1777827769 | 18.33° C | 45% | 1009.1 hPa | 0 mm | - | 686 W/m² | - |
| 1777827466 | 17.78° C | 47% | 1009.2 hPa | 0 mm | - | 710 W/m² | - |
| 1777827164 | 17.78° C | 46% | 1009.3 hPa | 0 mm | - | 735 W/m² | - |
| 1777826859 | 17.78° C | 47% | 1009.7 hPa | 0 mm | - | 733 W/m² | - |
| 1777826557 | 17.22° C | 50% | 1009.6 hPa | 0 mm | - | 746 W/m² | - |
| 1777826253 | 17.22° C | 48% | 1009.7 hPa | 0 mm | - | 657 W/m² | - |
| 1777825951 | 16.67° C | 51% | 1009.9 hPa | 0 mm | - | 734 W/m² | - |
| 1777825647 | 16.67° C | 50% | 1009.8 hPa | 0 mm | - | 674 W/m² | - |
| 1777825346 | 16.11° C | 50% | 1010.1 hPa | 0 mm | - | 750 W/m² | - |
| 1777825042 | 16.11° C | 52% | 1010.4 hPa | 0 mm | - | 741 W/m² | - |
| 1777824738 | 15.56° C | 54% | 1010.2 hPa | 0 mm | - | 730 W/m² | - |
| 1777824435 | 15.56° C | 53% | 1010.4 hPa | 0 mm | - | 732 W/m² | - |
| 1777824131 | 14.44° C | 55% | 1010.4 hPa | 0 mm | - | 647 W/m² | - |
| 1777823828 | 13.89° C | 56% | 1010.4 hPa | 0 mm | - | 524 W/m² | - |
| 1777823525 | 13.89° C | 54% | 1010.2 hPa | 0 mm | - | 588 W/m² | - |
| 1777823222 | 13.33° C | 57% | 1010.5 hPa | 0 mm | - | 645 W/m² | - |
| 1777822920 | 13.33° C | 57% | 1010.7 hPa | 0 mm | - | 449 W/m² | - |
| 1777822618 | 12.78° C | 58% | 1010.7 hPa | 0 mm | - | 275 W/m² | - |
| 1777822315 | 12.22° C | 59% | 1011 hPa | 0 mm | - | 269 W/m² | - |
| 1777822013 | 11.67° C | 61% | 1010.8 hPa | 0 mm | - | 183 W/m² | - |
| 1777821710 | 11.67° C | 62% | 1011.3 hPa | 0 mm | - | 128 W/m² | - |
| 1777821408 | 11.67° C | 63% | 1010.9 hPa | 0 mm | - | 80 W/m² | - |
| 1777821104 | 11.67° C | 62% | 1011.1 hPa | 0 mm | - | 78 W/m² | - |
| 1777820801 | 11.67° C | 59% | 1011.4 hPa | 0 mm | - | 38 W/m² | - |
| 1777820497 | 11.67° C | 61% | 1011.3 hPa | 0 mm | - | 39 W/m² | - |
* Rain latest hour (hover to see other rain measurements)
** Current wind speed in m/s (hover to see current wind gust speed)